sensor_id;sensor_type;location;lat;lon;timestamp;temperature;humidity
44833;DHT22;30569;51.252;9.830;2023-02-21T00:02:11;7.30;99.90
44833;DHT22;30569;51.252;9.830;2023-02-21T00:04:57;7.40;99.90
44833;DHT22;30569;51.252;9.830;2023-02-21T00:07:41;7.20;99.90
44833;DHT22;30569;51.252;9.830;2023-02-21T00:10:25;7.50;99.90
44833;DHT22;30569;51.252;9.830;2023-02-21T00:13:10;7.40;99.90
44833;DHT22;30569;51.252;9.830;2023-02-21T00:15:54;7.40;99.90
44833;DHT22;30569;51.252;9.830;2023-02-21T00:18:38;7.20;99.90
44833;DHT22;30569;51.252;9.830;2023-02-21T00:21:23;7.20;99.90
44833;DHT22;30569;51.252;9.830;2023-02-21T00:24:12;7.40;99.90
44833;DHT22;30569;51.252;9.830;2023-02-21T00:26:56;7.40;99.90
44833;DHT22;30569;51.252;9.830;2023-02-21T00:29:40;7.30;99.90
44833;DHT22;30569;51.252;9.830;2023-02-21T00:35:09;7.20;99.90
44833;DHT22;30569;51.252;9.830;2023-02-21T00:37:53;7.20;99.90
44833;DHT22;30569;51.252;9.830;2023-02-21T00:40:38;7.30;99.90
44833;DHT22;30569;51.252;9.830;2023-02-21T00:43:33;7.10;99.90
44833;DHT22;30569;51.252;9.830;2023-02-21T00:46:17;7.30;99.90
44833;DHT22;30569;51.252;9.830;2023-02-21T00:49:03;7.30;99.90
44833;DHT22;30569;51.252;9.830;2023-02-21T00:51:47;7.30;99.90
44833;DHT22;30569;51.252;9.830;2023-02-21T00:54:31;7.30;99.90
44833;DHT22;30569;51.252;9.830;2023-02-21T00:57:16;7.00;99.90
44833;DHT22;30569;51.252;9.830;2023-02-21T01:00:00;7.40;99.90
44833;DHT22;30569;51.252;9.830;2023-02-21T01:02:44;7.40;99.90
44833;DHT22;30569;51.252;9.830;2023-02-21T01:05:28;7.30;99.90
44833;DHT22;30569;51.252;9.830;2023-02-21T01:08:12;7.30;99.90
44833;DHT22;30569;51.252;9.830;2023-02-21T01:10:58;7.20;99.90
44833;DHT22;30569;51.252;9.830;2023-02-21T01:13:42;7.30;99.90
44833;DHT22;30569;51.252;9.830;2023-02-21T01:16:31;7.20;99.90
44833;DHT22;30569;51.252;9.830;2023-02-21T01:19:16;7.30;99.90
44833;DHT22;30569;51.252;9.830;2023-02-21T01:22:02;7.20;99.90
44833;DHT22;30569;51.252;9.830;2023-02-21T01:24:50;7.50;99.90
44833;DHT22;30569;51.252;9.830;2023-02-21T01:30:19;7.10;99.90
44833;DHT22;30569;51.252;9.830;2023-02-21T01:33:03;7.30;99.90
44833;DHT22;30569;51.252;9.830;2023-02-21T01:35:47;7.30;99.90
44833;DHT22;30569;51.252;9.830;2023-02-21T01:38:35;7.20;99.90
44833;DHT22;30569;51.252;9.830;2023-02-21T01:41:20;7.20;99.90
44833;DHT22;30569;51.252;9.830;2023-02-21T01:44:20;7.40;99.90
44833;DHT22;30569;51.252;9.830;2023-02-21T01:47:11;7.20;99.90
44833;DHT22;30569;51.252;9.830;2023-02-21T01:49:56;7.30;99.90
44833;DHT22;30569;51.252;9.830;2023-02-21T01:52:41;7.40;99.90
44833;DHT22;30569;51.252;9.830;2023-02-21T01:55:25;7.50;99.90
44833;DHT22;30569;51.252;9.830;2023-02-21T01:58:10;7.30;99.90
44833;DHT22;30569;51.252;9.830;2023-02-21T02:00:55;7.20;99.90
44833;DHT22;30569;51.252;9.830;2023-02-21T02:03:40;7.40;99.90
44833;DHT22;30569;51.252;9.830;2023-02-21T02:06:24;7.40;99.90
44833;DHT22;30569;51.252;9.830;2023-02-21T02:09:13;7.40;99.90
44833;DHT22;30569;51.252;9.830;2023-02-21T02:12:14;7.30;99.90
44833;DHT22;30569;51.252;9.830;2023-02-21T02:25:36;7.30;99.90
44833;DHT22;30569;51.252;9.830;2023-02-21T02:36:27;7.20;99.90
44833;DHT22;30569;51.252;9.830;2023-02-21T02:39:23;7.30;99.90
44833;DHT22;30569;51.252;9.830;2023-02-21T02:42:06;7.50;99.90
44833;DHT22;30569;51.252;9.830;2023-02-21T02:44:40;7.40;99.90
44833;DHT22;30569;51.252;9.830;2023-02-21T02:47:22;7.40;99.90
44833;DHT22;30569;51.252;9.830;2023-02-21T02:49:50;7.20;99.90
44833;DHT22;30569;51.252;9.830;2023-02-21T02:52:16;7.40;99.90
44833;DHT22;30569;51.252;9.830;2023-02-21T02:54:42;7.20;99.90
44833;DHT22;30569;51.252;9.830;2023-02-21T02:57:09;7.30;99.90
44833;DHT22;30569;51.252;9.830;2023-02-21T02:59:40;7.20;99.90
44833;DHT22;30569;51.252;9.830;2023-02-21T03:02:16;7.20;99.90
44833;DHT22;30569;51.252;9.830;2023-02-21T03:13:02;7.00;99.90
44833;DHT22;30569;51.252;9.830;2023-02-21T03:18:26;7.20;99.90
44833;DHT22;30569;51.252;9.830;2023-02-21T03:20:57;7.00;99.90
44833;DHT22;30569;51.252;9.830;2023-02-21T03:23:27;7.20;99.90
44833;DHT22;30569;51.252;9.830;2023-02-21T03:25:56;7.10;99.90
44833;DHT22;30569;51.252;9.830;2023-02-21T03:28:23;7.30;99.90
44833;DHT22;30569;51.252;9.830;2023-02-21T03:30:52;7.10;99.90
44833;DHT22;30569;51.252;9.830;2023-02-21T03:33:20;7.20;99.90
44833;DHT22;30569;51.252;9.830;2023-02-21T03:35:46;7.20;99.90
44833;DHT22;30569;51.252;9.830;2023-02-21T03:38:12;7.20;99.90
44833;DHT22;30569;51.252;9.830;2023-02-21T03:43:05;7.30;99.90
44833;DHT22;30569;51.252;9.830;2023-02-21T03:45:34;7.10;99.90
44833;DHT22;30569;51.252;9.830;2023-02-21T03:50:26;7.20;99.90
44833;DHT22;30569;51.252;9.830;2023-02-21T03:52:51;7.20;99.90
44833;DHT22;30569;51.252;9.830;2023-02-21T03:55:18;7.40;99.90
44833;DHT22;30569;51.252;9.830;2023-02-21T03:57:43;7.30;99.90
44833;DHT22;30569;51.252;9.830;2023-02-21T04:00:10;7.30;99.90
44833;DHT22;30569;51.252;9.830;2023-02-21T04:02:36;7.10;99.90
44833;DHT22;30569;51.252;9.830;2023-02-21T04:05:02;7.30;99.90
44833;DHT22;30569;51.252;9.830;2023-02-21T04:07:27;7.00;99.90
44833;DHT22;30569;51.252;9.830;2023-02-21T04:09:53;7.20;99.90
44833;DHT22;30569;51.252;9.830;2023-02-21T04:14:45;7.30;99.90
44833;DHT22;30569;51.252;9.830;2023-02-21T04:19:36;7.20;99.90
44833;DHT22;30569;51.252;9.830;2023-02-21T04:22:02;6.90;99.90
44833;DHT22;30569;51.252;9.830;2023-02-21T04:24:28;7.10;99.90
44833;DHT22;30569;51.252;9.830;2023-02-21T04:29:19;7.00;99.90
44833;DHT22;30569;51.252;9.830;2023-02-21T04:36:37;7.20;99.90
44833;DHT22;30569;51.252;9.830;2023-02-21T04:39:03;7.10;99.90
44833;DHT22;30569;51.252;9.830;2023-02-21T04:41:29;6.90;99.90
44833;DHT22;30569;51.252;9.830;2023-02-21T04:43:54;6.80;99.90
44833;DHT22;30569;51.252;9.830;2023-02-21T04:46:20;7.10;99.90
44833;DHT22;30569;51.252;9.830;2023-02-21T04:48:48;6.90;99.90
44833;DHT22;30569;51.252;9.830;2023-02-21T04:51:16;6.90;99.90
44833;DHT22;30569;51.252;9.830;2023-02-21T04:53:43;6.70;99.90
44833;DHT22;30569;51.252;9.830;2023-02-21T05:08:20;6.80;99.90
44833;DHT22;30569;51.252;9.830;2023-02-21T05:10:48;6.90;99.90
44833;DHT22;30569;51.252;9.830;2023-02-21T05:18:06;6.80;99.90
44833;DHT22;30569;51.252;9.830;2023-02-21T05:20:31;6.90;99.90
44833;DHT22;30569;51.252;9.830;2023-02-21T05:22:57;6.90;99.90
44833;DHT22;30569;51.252;9.830;2023-02-21T05:25:23;7.00;99.90
44833;DHT22;30569;51.252;9.830;2023-02-21T05:27:52;6.90;99.90
44833;DHT22;30569;51.252;9.830;2023-02-21T05:30:20;6.90;99.90
44833;DHT22;30569;51.252;9.830;2023-02-21T05:32:47;6.80;99.90
44833;DHT22;30569;51.252;9.830;2023-02-21T05:35:13;6.80;99.90
44833;DHT22;30569;51.252;9.830;2023-02-21T05:37:39;7.20;99.90
44833;DHT22;30569;51.252;9.830;2023-02-21T05:40:05;6.90;99.90
44833;DHT22;30569;51.252;9.830;2023-02-21T05:42:31;7.30;99.90
44833;DHT22;30569;51.252;9.830;2023-02-21T05:44:57;6.80;99.90
44833;DHT22;30569;51.252;9.830;2023-02-21T05:47:22;6.80;99.90
44833;DHT22;30569;51.252;9.830;2023-02-21T05:49:48;6.90;99.90
44833;DHT22;30569;51.252;9.830;2023-02-21T05:52:15;7.00;99.90
44833;DHT22;30569;51.252;9.830;2023-02-21T05:54:43;6.80;99.90
44833;DHT22;30569;51.252;9.830;2023-02-21T05:59:36;6.80;99.90
44833;DHT22;30569;51.252;9.830;2023-02-21T06:02:01;6.90;99.90
44833;DHT22;30569;51.252;9.830;2023-02-21T06:06:53;7.20;99.90
44833;DHT22;30569;51.252;9.830;2023-02-21T06:09:20;7.00;99.90
44833;DHT22;30569;51.252;9.830;2023-02-21T06:14:17;6.90;99.90
44833;DHT22;30569;51.252;9.830;2023-02-21T06:16:43;7.00;99.90
44833;DHT22;30569;51.252;9.830;2023-02-21T06:19:09;6.90;99.90
44833;DHT22;30569;51.252;9.830;2023-02-21T06:21:37;7.00;99.90
44833;DHT22;30569;51.252;9.830;2023-02-21T06:24:03;7.00;99.90
44833;DHT22;30569;51.252;9.830;2023-02-21T06:26:29;6.90;99.90
44833;DHT22;30569;51.252;9.830;2023-02-21T06:28:54;6.90;99.90
44833;DHT22;30569;51.252;9.830;2023-02-21T06:31:20;6.80;99.90
44833;DHT22;30569;51.252;9.830;2023-02-21T06:33:47;6.90;99.90
44833;DHT22;30569;51.252;9.830;2023-02-21T06:36:23;6.90;99.90
44833;DHT22;30569;51.252;9.830;2023-02-21T06:38:53;7.00;99.90
44833;DHT22;30569;51.252;9.830;2023-02-21T06:41:23;6.90;99.90
44833;DHT22;30569;51.252;9.830;2023-02-21T06:46:17;6.80;99.90
44833;DHT22;30569;51.252;9.830;2023-02-21T06:48:42;6.80;99.90
44833;DHT22;30569;51.252;9.830;2023-02-21T06:51:08;6.90;99.90
44833;DHT22;30569;51.252;9.830;2023-02-21T06:56:04;7.00;99.90
44833;DHT22;30569;51.252;9.830;2023-02-21T06:58:30;6.70;99.90
44833;DHT22;30569;51.252;9.830;2023-02-21T07:08:13;7.00;99.90
44833;DHT22;30569;51.252;9.830;2023-02-21T07:10:39;6.80;99.90
44833;DHT22;30569;51.252;9.830;2023-02-21T07:22:49;7.10;99.90
44833;DHT22;30569;51.252;9.830;2023-02-21T07:25:16;7.00;99.90
44833;DHT22;30569;51.252;9.830;2023-02-21T07:27:43;7.30;99.90
44833;DHT22;30569;51.252;9.830;2023-02-21T07:30:10;7.20;99.90
44833;DHT22;30569;51.252;9.830;2023-02-21T07:32:36;7.40;99.90
44833;DHT22;30569;51.252;9.830;2023-02-21T07:35:01;7.30;99.90
44833;DHT22;30569;51.252;9.830;2023-02-21T07:37:27;7.00;99.90
44833;DHT22;30569;51.252;9.830;2023-02-21T07:39:52;7.10;99.90
44833;DHT22;30569;51.252;9.830;2023-02-21T07:44:44;7.10;99.90
44833;DHT22;30569;51.252;9.830;2023-02-21T07:47:09;7.10;99.90
44833;DHT22;30569;51.252;9.830;2023-02-21T07:49:39;7.20;99.90
44833;DHT22;30569;51.252;9.830;2023-02-21T07:52:06;7.10;99.90
44833;DHT22;30569;51.252;9.830;2023-02-21T07:54:32;7.10;99.90
44833;DHT22;30569;51.252;9.830;2023-02-21T07:56:57;7.30;99.90
44833;DHT22;30569;51.252;9.830;2023-02-21T07:59:23;7.50;99.90
44833;DHT22;30569;51.252;9.830;2023-02-21T08:01:49;7.30;99.90
44833;DHT22;30569;51.252;9.830;2023-02-21T08:04:15;7.70;99.90
44833;DHT22;30569;51.252;9.830;2023-02-21T08:06:46;7.50;99.90
44833;DHT22;30569;51.252;9.830;2023-02-21T08:11:37;7.10;99.90
44833;DHT22;30569;51.252;9.830;2023-02-21T08:14:04;7.60;99.90
44833;DHT22;30569;51.252;9.830;2023-02-21T08:18:56;7.50;99.90
44833;DHT22;30569;51.252;9.830;2023-02-21T08:26:14;7.40;99.90
44833;DHT22;30569;51.252;9.830;2023-02-21T08:28:39;7.70;99.90
44833;DHT22;30569;51.252;9.830;2023-02-21T08:31:06;7.90;99.90
44833;DHT22;30569;51.252;9.830;2023-02-21T08:33:31;7.50;99.90
44833;DHT22;30569;51.252;9.830;2023-02-21T08:35:57;7.80;99.90
44833;DHT22;30569;51.252;9.830;2023-02-21T08:38:22;7.40;99.90
44833;DHT22;30569;51.252;9.830;2023-02-21T08:45:41;7.70;99.90
44833;DHT22;30569;51.252;9.830;2023-02-21T08:48:07;7.80;99.90
44833;DHT22;30569;51.252;9.830;2023-02-21T08:50:32;7.80;99.90
44833;DHT22;30569;51.252;9.830;2023-02-21T08:52:58;8.00;99.90
44833;DHT22;30569;51.252;9.830;2023-02-21T08:55:23;8.00;99.90
44833;DHT22;30569;51.252;9.830;2023-02-21T08:57:51;8.30;99.90
44833;DHT22;30569;51.252;9.830;2023-02-21T09:00:19;8.20;99.90
44833;DHT22;30569;51.252;9.830;2023-02-21T09:02:48;8.70;99.90
44833;DHT22;30569;51.252;9.830;2023-02-21T09:05:23;8.60;99.90
44833;DHT22;30569;51.252;9.830;2023-02-21T09:07:51;8.50;99.90
44833;DHT22;30569;51.252;9.830;2023-02-21T09:10:20;8.10;99.90
44833;DHT22;30569;51.252;9.830;2023-02-21T09:12:45;8.10;99.90
44833;DHT22;30569;51.252;9.830;2023-02-21T09:15:14;8.20;99.90
44833;DHT22;30569;51.252;9.830;2023-02-21T09:17:40;8.10;99.90
44833;DHT22;30569;51.252;9.830;2023-02-21T09:20:07;8.30;99.90
44833;DHT22;30569;51.252;9.830;2023-02-21T09:22:33;8.10;99.90
44833;DHT22;30569;51.252;9.830;2023-02-21T09:24:59;8.20;99.90
44833;DHT22;30569;51.252;9.830;2023-02-21T09:27:25;8.10;99.90
44833;DHT22;30569;51.252;9.830;2023-02-21T09:30:11;7.90;99.90
44833;DHT22;30569;51.252;9.830;2023-02-21T09:32:38;8.20;99.90
44833;DHT22;30569;51.252;9.830;2023-02-21T09:35:04;8.00;99.90
44833;DHT22;30569;51.252;9.830;2023-02-21T09:37:30;8.00;99.90
44833;DHT22;30569;51.252;9.830;2023-02-21T09:39:57;8.10;99.90
44833;DHT22;30569;51.252;9.830;2023-02-21T09:42:27;8.20;99.90
44833;DHT22;30569;51.252;9.830;2023-02-21T09:44:53;8.10;99.90
44833;DHT22;30569;51.252;9.830;2023-02-21T09:47:29;8.20;99.90
44833;DHT22;30569;51.252;9.830;2023-02-21T09:50:03;8.20;99.90
44833;DHT22;30569;51.252;9.830;2023-02-21T09:52:37;8.20;99.90
44833;DHT22;30569;51.252;9.830;2023-02-21T09:55:27;8.20;99.90
44833;DHT22;30569;51.252;9.830;2023-02-21T10:00:31;8.10;99.90
44833;DHT22;30569;51.252;9.830;2023-02-21T10:14:26;8.10;99.90
44833;DHT22;30569;51.252;9.830;2023-02-21T10:19:48;8.10;99.90
44833;DHT22;30569;51.252;9.830;2023-02-21T10:22:24;8.20;99.90
44833;DHT22;30569;51.252;9.830;2023-02-21T10:24:51;7.90;99.90
44833;DHT22;30569;51.252;9.830;2023-02-21T10:27:20;8.10;99.90
44833;DHT22;30569;51.252;9.830;2023-02-21T10:30:00;8.10;99.90
44833;DHT22;30569;51.252;9.830;2023-02-21T10:32:27;8.10;99.90
44833;DHT22;30569;51.252;9.830;2023-02-21T10:34:53;8.20;99.90
44833;DHT22;30569;51.252;9.830;2023-02-21T10:37:28;8.50;99.90
44833;DHT22;30569;51.252;9.830;2023-02-21T10:40:26;8.50;99.90
44833;DHT22;30569;51.252;9.830;2023-02-21T10:43:18;8.40;99.90
44833;DHT22;30569;51.252;9.830;2023-02-21T10:48:33;8.30;99.90
44833;DHT22;30569;51.252;9.830;2023-02-21T10:51:14;8.30;99.90
44833;DHT22;30569;51.252;9.830;2023-02-21T10:53:42;8.30;99.90
44833;DHT22;30569;51.252;9.830;2023-02-21T10:59:03;8.30;99.90
44833;DHT22;30569;51.252;9.830;2023-02-21T11:01:57;8.30;99.90
44833;DHT22;30569;51.252;9.830;2023-02-21T11:04:26;8.00;99.90
44833;DHT22;30569;51.252;9.830;2023-02-21T11:07:00;8.40;99.90
44833;DHT22;30569;51.252;9.830;2023-02-21T11:09:49;8.30;99.90
44833;DHT22;30569;51.252;9.830;2023-02-21T11:17:23;8.60;99.90
44833;DHT22;30569;51.252;9.830;2023-02-21T11:19:57;8.60;99.90
44833;DHT22;30569;51.252;9.830;2023-02-21T11:25:00;8.60;99.90
44833;DHT22;30569;51.252;9.830;2023-02-21T11:27:29;8.90;99.90
44833;DHT22;30569;51.252;9.830;2023-02-21T11:29:56;8.60;99.90
44833;DHT22;30569;51.252;9.830;2023-02-21T11:32:31;8.50;99.90
44833;DHT22;30569;51.252;9.830;2023-02-21T11:35:13;8.70;99.90
44833;DHT22;30569;51.252;9.830;2023-02-21T11:37:54;8.60;99.90
44833;DHT22;30569;51.252;9.830;2023-02-21T11:40:33;8.70;99.90
44833;DHT22;30569;51.252;9.830;2023-02-21T11:43:21;8.80;99.90
44833;DHT22;30569;51.252;9.830;2023-02-21T11:46:16;9.00;99.90
44833;DHT22;30569;51.252;9.830;2023-02-21T11:54:00;9.00;99.90
44833;DHT22;30569;51.252;9.830;2023-02-21T11:56:31;9.10;99.90
44833;DHT22;30569;51.252;9.830;2023-02-21T11:59:25;9.20;99.90
44833;DHT22;30569;51.252;9.830;2023-02-21T12:04:58;9.20;99.90
44833;DHT22;30569;51.252;9.830;2023-02-21T12:13:43;9.10;99.90
44833;DHT22;30569;51.252;9.830;2023-02-21T12:24:24;8.80;99.90
44833;DHT22;30569;51.252;9.830;2023-02-21T12:27:02;8.70;99.90
44833;DHT22;30569;51.252;9.830;2023-02-21T12:43:48;10.10;99.90
44833;DHT22;30569;51.252;9.830;2023-02-21T12:46:20;10.20;99.90
44833;DHT22;30569;51.252;9.830;2023-02-21T12:51:33;10.70;99.90
44833;DHT22;30569;51.252;9.830;2023-02-21T12:54:49;10.80;99.90
44833;DHT22;30569;51.252;9.830;2023-02-21T12:56:57;10.90;99.90
44833;DHT22;30569;51.252;9.830;2023-02-21T13:01:57;11.10;99.90
44833;DHT22;30569;51.252;9.830;2023-02-21T13:07:48;11.60;99.90
44833;DHT22;30569;51.252;9.830;2023-02-21T13:10:22;11.40;99.90
44833;DHT22;30569;51.252;9.830;2023-02-21T13:13:11;11.20;99.90
44833;DHT22;30569;51.252;9.830;2023-02-21T13:15:44;10.90;99.90
44833;DHT22;30569;51.252;9.830;2023-02-21T13:18:22;10.90;99.90
44833;DHT22;30569;51.252;9.830;2023-02-21T13:23:53;11.20;99.90
44833;DHT22;30569;51.252;9.830;2023-02-21T13:29:28;11.00;99.90
44833;DHT22;30569;51.252;9.830;2023-02-21T13:32:12;11.40;99.90
44833;DHT22;30569;51.252;9.830;2023-02-21T13:34:41;11.40;99.90
44833;DHT22;30569;51.252;9.830;2023-02-21T13:37:17;11.80;99.90
44833;DHT22;30569;51.252;9.830;2023-02-21T13:39:45;11.90;99.90
44833;DHT22;30569;51.252;9.830;2023-02-21T13:42:21;12.50;99.90
44833;DHT22;30569;51.252;9.830;2023-02-21T13:44:52;12.60;99.90
44833;DHT22;30569;51.252;9.830;2023-02-21T13:47:22;12.60;99.90
44833;DHT22;30569;51.252;9.830;2023-02-21T13:49:58;11.70;99.90
44833;DHT22;30569;51.252;9.830;2023-02-21T13:52:33;11.80;99.90
44833;DHT22;30569;51.252;9.830;2023-02-21T14:02:58;11.40;99.90
44833;DHT22;30569;51.252;9.830;2023-02-21T14:05:25;11.20;99.90
44833;DHT22;30569;51.252;9.830;2023-02-21T14:08:01;10.60;99.90
44833;DHT22;30569;51.252;9.830;2023-02-21T14:10:43;10.40;99.90
44833;DHT22;30569;51.252;9.830;2023-02-21T14:15:46;10.90;99.90
44833;DHT22;30569;51.252;9.830;2023-02-21T14:18:24;11.40;99.90
44833;DHT22;30569;51.252;9.830;2023-02-21T14:20:53;11.30;99.90
44833;DHT22;30569;51.252;9.830;2023-02-21T14:23:22;11.10;99.90
44833;DHT22;30569;51.252;9.830;2023-02-21T14:26:00;11.50;99.90
44833;DHT22;30569;51.252;9.830;2023-02-21T14:31:49;11.80;99.90
44833;DHT22;30569;51.252;9.830;2023-02-21T14:34:48;11.80;99.90
44833;DHT22;30569;51.252;9.830;2023-02-21T14:47:45;12.50;99.90
44833;DHT22;30569;51.252;9.830;2023-02-21T14:53:49;12.90;99.90
44833;DHT22;30569;51.252;9.830;2023-02-21T15:01:46;11.90;99.90
44833;DHT22;30569;51.252;9.830;2023-02-21T15:04:32;11.90;99.90
44833;DHT22;30569;51.252;9.830;2023-02-21T15:07:26;11.60;99.90
44833;DHT22;30569;51.252;9.830;2023-02-21T15:10:13;11.40;99.90
44833;DHT22;30569;51.252;9.830;2023-02-21T15:13:03;11.80;99.90
44833;DHT22;30569;51.252;9.830;2023-02-21T15:15:40;12.00;99.90
44833;DHT22;30569;51.252;9.830;2023-02-21T15:18:14;11.60;99.90
44833;DHT22;30569;51.252;9.830;2023-02-21T15:21:21;10.70;99.90
44833;DHT22;30569;51.252;9.830;2023-02-21T15:23:47;10.10;99.90
44833;DHT22;30569;51.252;9.830;2023-02-21T15:26:26;9.90;99.90
44833;DHT22;30569;51.252;9.830;2023-02-21T15:31:40;9.60;99.90
44833;DHT22;30569;51.252;9.830;2023-02-21T15:34:24;9.70;99.90
44833;DHT22;30569;51.252;9.830;2023-02-21T15:39:39;9.60;99.90
44833;DHT22;30569;51.252;9.830;2023-02-21T15:42:08;9.80;99.90
44833;DHT22;30569;51.252;9.830;2023-02-21T15:44:38;9.80;99.90
44833;DHT22;30569;51.252;9.830;2023-02-21T15:47:12;10.00;99.90
44833;DHT22;30569;51.252;9.830;2023-02-21T15:50:11;10.60;99.90
44833;DHT22;30569;51.252;9.830;2023-02-21T15:52:48;10.40;99.90
44833;DHT22;30569;51.252;9.830;2023-02-21T16:00:32;10.10;99.90
44833;DHT22;30569;51.252;9.830;2023-02-21T16:05:55;9.80;99.90
44833;DHT22;30569;51.252;9.830;2023-02-21T16:08:32;9.80;99.90
44833;DHT22;30569;51.252;9.830;2023-02-21T16:11:02;9.90;99.90
44833;DHT22;30569;51.252;9.830;2023-02-21T16:13:37;10.00;99.90
44833;DHT22;30569;51.252;9.830;2023-02-21T16:16:04;10.60;99.90
44833;DHT22;30569;51.252;9.830;2023-02-21T16:18:29;11.10;99.90
44833;DHT22;30569;51.252;9.830;2023-02-21T16:21:04;11.40;99.90
44833;DHT22;30569;51.252;9.830;2023-02-21T16:23:41;11.70;99.90
44833;DHT22;30569;51.252;9.830;2023-02-21T16:28:34;11.30;99.90
44833;DHT22;30569;51.252;9.830;2023-02-21T16:31:02;11.50;99.90
44833;DHT22;30569;51.252;9.830;2023-02-21T16:33:30;11.70;99.90
44833;DHT22;30569;51.252;9.830;2023-02-21T16:35:57;11.90;99.90
44833;DHT22;30569;51.252;9.830;2023-02-21T16:38:24;11.90;99.90
44833;DHT22;30569;51.252;9.830;2023-02-21T16:40:51;11.80;99.90
44833;DHT22;30569;51.252;9.830;2023-02-21T16:43:21;11.10;99.90
44833;DHT22;30569;51.252;9.830;2023-02-21T16:45:47;11.00;99.90
44833;DHT22;30569;51.252;9.830;2023-02-21T16:48:17;11.20;99.90
44833;DHT22;30569;51.252;9.830;2023-02-21T16:50:46;11.40;99.90
44833;DHT22;30569;51.252;9.830;2023-02-21T16:53:13;11.70;99.90
44833;DHT22;30569;51.252;9.830;2023-02-21T16:55:39;11.70;99.90
44833;DHT22;30569;51.252;9.830;2023-02-21T16:58:07;10.80;99.90
44833;DHT22;30569;51.252;9.830;2023-02-21T17:00:35;10.70;99.90
44833;DHT22;30569;51.252;9.830;2023-02-21T17:03:01;10.80;99.90
44833;DHT22;30569;51.252;9.830;2023-02-21T17:05:26;11.10;99.90
44833;DHT22;30569;51.252;9.830;2023-02-21T17:07:54;11.40;99.90
44833;DHT22;30569;51.252;9.830;2023-02-21T17:10:20;11.40;99.90
44833;DHT22;30569;51.252;9.830;2023-02-21T17:12:45;11.60;99.90
44833;DHT22;30569;51.252;9.830;2023-02-21T17:17:39;11.70;99.90
44833;DHT22;30569;51.252;9.830;2023-02-21T17:20:06;11.80;99.90
44833;DHT22;30569;51.252;9.830;2023-02-21T17:24:58;11.70;99.90
44833;DHT22;30569;51.252;9.830;2023-02-21T17:27:24;11.70;99.90
44833;DHT22;30569;51.252;9.830;2023-02-21T17:34:42;11.40;99.90
44833;DHT22;30569;51.252;9.830;2023-02-21T17:37:08;11.60;99.90
44833;DHT22;30569;51.252;9.830;2023-02-21T17:39:35;11.60;99.90
44833;DHT22;30569;51.252;9.830;2023-02-21T17:42:01;11.70;99.90
44833;DHT22;30569;51.252;9.830;2023-02-21T17:44:27;11.70;99.90
44833;DHT22;30569;51.252;9.830;2023-02-21T17:46:55;11.70;99.90
44833;DHT22;30569;51.252;9.830;2023-02-21T17:49:24;11.60;99.90
44833;DHT22;30569;51.252;9.830;2023-02-21T17:51:51;11.60;99.90
44833;DHT22;30569;51.252;9.830;2023-02-21T17:54:21;11.50;99.90
44833;DHT22;30569;51.252;9.830;2023-02-21T17:56:47;11.60;99.90
44833;DHT22;30569;51.252;9.830;2023-02-21T17:59:13;11.60;99.90
44833;DHT22;30569;51.252;9.830;2023-02-21T18:01:39;11.70;99.90
44833;DHT22;30569;51.252;9.830;2023-02-21T18:04:08;11.70;99.90
44833;DHT22;30569;51.252;9.830;2023-02-21T18:06:35;11.70;99.90
44833;DHT22;30569;51.252;9.830;2023-02-21T18:09:02;11.60;99.90
44833;DHT22;30569;51.252;9.830;2023-02-21T18:13:55;11.60;99.90
44833;DHT22;30569;51.252;9.830;2023-02-21T18:18:48;11.60;99.90
44833;DHT22;30569;51.252;9.830;2023-02-21T18:21:14;11.60;99.90
44833;DHT22;30569;51.252;9.830;2023-02-21T18:23:42;11.50;99.90
44833;DHT22;30569;51.252;9.830;2023-02-21T18:26:08;11.60;99.90
44833;DHT22;30569;51.252;9.830;2023-02-21T18:28:34;11.60;99.90
44833;DHT22;30569;51.252;9.830;2023-02-21T18:30:59;11.60;99.90
44833;DHT22;30569;51.252;9.830;2023-02-21T18:33:25;11.50;99.90
44833;DHT22;30569;51.252;9.830;2023-02-21T18:35:54;11.60;99.90
44833;DHT22;30569;51.252;9.830;2023-02-21T18:38:21;11.50;99.90
44833;DHT22;30569;51.252;9.830;2023-02-21T18:43:24;11.50;99.90
44833;DHT22;30569;51.252;9.830;2023-02-21T18:45:52;11.50;99.90
44833;DHT22;30569;51.252;9.830;2023-02-21T18:48:18;11.50;99.90
44833;DHT22;30569;51.252;9.830;2023-02-21T18:50:44;11.50;99.90
44833;DHT22;30569;51.252;9.830;2023-02-21T18:53:10;11.50;99.90
44833;DHT22;30569;51.252;9.830;2023-02-21T18:55:36;11.50;99.90
44833;DHT22;30569;51.252;9.830;2023-02-21T18:58:02;11.60;99.90
44833;DHT22;30569;51.252;9.830;2023-02-21T19:00:28;11.50;99.90
44833;DHT22;30569;51.252;9.830;2023-02-21T19:02:54;11.40;99.90
44833;DHT22;30569;51.252;9.830;2023-02-21T19:05:22;11.40;99.90
44833;DHT22;30569;51.252;9.830;2023-02-21T19:07:48;11.30;99.90
44833;DHT22;30569;51.252;9.830;2023-02-21T19:10:16;11.30;99.90
44833;DHT22;30569;51.252;9.830;2023-02-21T19:12:42;11.30;99.90
44833;DHT22;30569;51.252;9.830;2023-02-21T19:15:10;11.30;99.90
44833;DHT22;30569;51.252;9.830;2023-02-21T19:17:36;11.20;99.90
44833;DHT22;30569;51.252;9.830;2023-02-21T19:20:03;11.00;99.90
44833;DHT22;30569;51.252;9.830;2023-02-21T19:22:30;11.10;99.90
44833;DHT22;30569;51.252;9.830;2023-02-21T19:27:22;11.20;99.90
44833;DHT22;30569;51.252;9.830;2023-02-21T19:29:48;11.20;99.90
44833;DHT22;30569;51.252;9.830;2023-02-21T19:32:13;11.30;99.90
44833;DHT22;30569;51.252;9.830;2023-02-21T19:34:39;11.30;99.90
44833;DHT22;30569;51.252;9.830;2023-02-21T19:37:05;11.30;99.90
44833;DHT22;30569;51.252;9.830;2023-02-21T19:39:31;11.40;99.90
44833;DHT22;30569;51.252;9.830;2023-02-21T19:41:56;11.20;99.90
44833;DHT22;30569;51.252;9.830;2023-02-21T19:44:22;11.20;99.90
44833;DHT22;30569;51.252;9.830;2023-02-21T19:46:48;10.90;99.90
44833;DHT22;30569;51.252;9.830;2023-02-21T19:49:13;10.60;99.90
44833;DHT22;30569;51.252;9.830;2023-02-21T19:51:43;10.90;99.90
44833;DHT22;30569;51.252;9.830;2023-02-21T19:54:13;10.80;99.90
44833;DHT22;30569;51.252;9.830;2023-02-21T19:56:39;11.00;99.90
44833;DHT22;30569;51.252;9.830;2023-02-21T19:59:05;11.10;99.90
44833;DHT22;30569;51.252;9.830;2023-02-21T20:01:31;11.00;99.90
44833;DHT22;30569;51.252;9.830;2023-02-21T20:03:58;11.00;99.90
44833;DHT22;30569;51.252;9.830;2023-02-21T20:06:24;11.00;99.90
44833;DHT22;30569;51.252;9.830;2023-02-21T20:08:53;11.10;99.90
44833;DHT22;30569;51.252;9.830;2023-02-21T20:11:20;11.00;99.90
44833;DHT22;30569;51.252;9.830;2023-02-21T20:13:46;11.00;99.90
44833;DHT22;30569;51.252;9.830;2023-02-21T20:16:12;11.10;99.90
44833;DHT22;30569;51.252;9.830;2023-02-21T20:18:42;11.10;99.90
44833;DHT22;30569;51.252;9.830;2023-02-21T20:21:08;11.10;99.90
44833;DHT22;30569;51.252;9.830;2023-02-21T20:23:34;11.10;99.90
44833;DHT22;30569;51.252;9.830;2023-02-21T20:26:00;11.20;99.90
44833;DHT22;30569;51.252;9.830;2023-02-21T20:28:25;11.10;99.90
44833;DHT22;30569;51.252;9.830;2023-02-21T20:30:54;11.00;99.90
44833;DHT22;30569;51.252;9.830;2023-02-21T20:33:19;11.10;99.90
44833;DHT22;30569;51.252;9.830;2023-02-21T20:35:47;11.10;99.90